Sunday, October 21, 2018, 12:42 AM EDT
Back to Local

KWVL, Waterville, Waterville Robert Lafleur Airport

Location: Waterville, ME, United States Lat: 44.533
Local Time: 12:42 AM EDT ( 4:42 GMT) Lon: -69.683
Time Zone: US/Eastern Elev: 334 ft

Show me the last for .
Show Decoded

2018-10-20 23:56 METAR KWVL 210356Z AUTO 33008KT 10SM CLR 08/00 A2954 RMK AO2 SLP030 T00780000 $
                 =
2018-10-20 22:56 METAR KWVL 210256Z AUTO 32006KT 10SM CLR 08/M01 A2952 RMK AO2 SLP024 T00831006
                 52013 $ =
2018-10-20 21:56 METAR KWVL 210156Z AUTO 32004KT 10SM CLR 08/M01 A2951 RMK AO2 SLP019 T00831006 $
                 =
2018-10-20 20:56 METAR KWVL 210056Z AUTO 32004KT 10SM CLR 08/01 A2950 RMK AO2 SLP018 T00830006 $
                 =
2018-10-20 19:56 METAR KWVL 202356Z AUTO 00000KT 10SM CLR 08/03 A2948 RMK AO2 SLP011 T00780033
                 10172 20078 53013 $ =
2018-10-20 18:56 METAR KWVL 202256Z AUTO 00000KT 10SM CLR 10/04 A2947 RMK AO2 SLP008 T01000039 $
                 =
2018-10-20 17:56 METAR KWVL 202156Z AUTO 00000KT 10SM CLR 13/04 A2945 RMK AO2 SLP000 T01280039 $
                 =
2018-10-20 16:56 METAR KWVL 202056Z AUTO 22006KT 10SM CLR 16/04 A2945 RMK AO2 SLP998 T01560039
                 55005 $ =
2018-10-20 15:56 METAR KWVL 201956Z AUTO 23009G15KT 10SM FEW065 17/04 A2944 RMK AO2 SLP997
                 T01670044 $ =
2018-10-20 14:56 METAR KWVL 201856Z AUTO 23010G19KT 10SM FEW050 17/05 A2945 RMK AO2 SLP999
                 T01670050 $ =
2018-10-20 13:56 METAR KWVL 201756Z AUTO 23010G19KT 10SM SCT050 BKN065 17/06 A2946 RMK AO2 SLP003
                 T01670061 10172 20106 56016 $ =
2018-10-20 12:56 METAR KWVL 201656Z AUTO 23014G18KT 10SM BKN060 16/06 A2947 RMK AO2 SLP006
                 T01610061 $ =
2018-10-20 11:56 METAR KWVL 201556Z AUTO 22013G22KT 10SM FEW035 14/06 A2949 RMK AO2 SLP011
                 T01440061 $ =
2018-10-20 10:56 METAR KWVL 201456Z AUTO 24014G21KT 10SM OVC037 14/07 A2951 RMK AO2 SLP020
                 T01440067 56011 $ =
2018-10-20 09:56 METAR KWVL 201356Z AUTO 22013G20KT 10SM FEW060 14/07 A2951 RMK AO2 SLP021
                 T01390067 $ =
2018-10-20 08:56 METAR KWVL 201256Z AUTO VRB06KT 10SM OVC070 12/06 A2953 RMK AO2 SLP026 T01170061
                 $ =
2018-10-20 07:56 METAR KWVL 201156Z AUTO 20007KT 10SM BKN090 11/06 A2954 RMK AO2 RAE1057 SLP031
                 60000 T01060056 10106 20089 56016 $ =
2018-10-20 06:56 METAR KWVL 201056Z AUTO 20005KT 10SM -RA FEW045 OVC060 09/06 A2955 RMK AO2 RAB06
                 SLP032 P0000 T00940056 $ =
2018-10-20 05:56 METAR KWVL 200956Z AUTO VRB06G14KT 10SM FEW095 11/04 A2958 RMK AO2 SLP043
                 T01060039 $ =
2018-10-20 04:56 METAR KWVL 200856Z AUTO 20007KT 10SM FEW090 BKN110 10/03 A2959 RMK AO2 SLP048
                 T01000028 56016 $ =
2018-10-20 03:56 METAR KWVL 200756Z AUTO 21009G17KT 180V250 10SM OVC110 10/02 A2960 RMK AO2
                 SLP050 T01000022 $ =
2018-10-20 02:56 METAR KWVL 200656Z AUTO 21007KT 180V240 10SM FEW120 09/03 A2963 RMK AO2 SLP061
                 T00940033 $ =
2018-10-20 01:56 METAR KWVL 200556Z AUTO VRB05KT 10SM CLR 09/04 A2964 RMK AO2 SLP064 T00890039
                 10089 20067 58038 $ =
2018-10-20 00:56 METAR KWVL 200456Z AUTO VRB04KT 10SM CLR 09/04 A2971 RMK AO2 SLP088 T00890039
                 401280000 $ =

Support USWX by starting your Amazon purchase here.